sensor_id;sensor_type;location;lat;lon;timestamp;pressure;altitude;pressure_sealevel;temperature;humidity
55685;BME280;41883;49.544;8.646;2023-02-18T00:00:58;101386.44;;;11.67;nan
55685;BME280;41883;49.544;8.646;2023-02-18T00:03:25;101380.31;;;11.66;nan
55685;BME280;41883;49.544;8.646;2023-02-18T00:05:50;101378.38;;;11.68;nan
55685;BME280;41883;49.544;8.646;2023-02-18T00:08:16;101375.84;;;11.67;nan
55685;BME280;41883;49.544;8.646;2023-02-18T00:10:41;101380.03;;;11.69;nan
55685;BME280;41883;49.544;8.646;2023-02-18T00:13:06;101378.38;;;11.68;nan
55685;BME280;41883;49.544;8.646;2023-02-18T00:15:33;101377.78;;;11.75;nan
55685;BME280;41883;49.544;8.646;2023-02-18T00:17:59;101377.09;;;11.73;nan
55685;BME280;41883;49.544;8.646;2023-02-18T00:20:24;101376.13;;;11.74;nan
55685;BME280;41883;49.544;8.646;2023-02-18T00:22:49;101383.09;;;11.75;nan
55685;BME280;41883;49.544;8.646;2023-02-18T00:25:14;101389.38;;;11.74;nan
55685;BME280;41883;49.544;8.646;2023-02-18T00:27:39;101387.56;;;11.74;nan
55685;BME280;41883;49.544;8.646;2023-02-18T00:30:05;101371.66;;;11.74;nan
55685;BME280;41883;49.544;8.646;2023-02-18T00:32:30;101374.44;;;11.73;nan
55685;BME280;41883;49.544;8.646;2023-02-18T00:34:55;101373.34;;;11.75;nan
55685;BME280;41883;49.544;8.646;2023-02-18T00:37:21;101374.88;;;11.78;nan
55685;BME280;41883;49.544;8.646;2023-02-18T00:39:46;101373.91;;;11.79;nan
55685;BME280;41883;49.544;8.646;2023-02-18T00:42:11;101379.06;;;11.80;nan
55685;BME280;41883;49.544;8.646;2023-02-18T00:44:38;101386.19;;;11.80;nan
55685;BME280;41883;49.544;8.646;2023-02-18T00:47:03;101371.81;;;11.82;nan
55685;BME280;41883;49.544;8.646;2023-02-18T00:49:28;101371.81;;;11.82;nan
55685;BME280;41883;49.544;8.646;2023-02-18T00:51:54;101370.97;;;11.82;nan
55685;BME280;41883;49.544;8.646;2023-02-18T00:54:19;101371.81;;;11.82;nan
55685;BME280;41883;49.544;8.646;2023-02-18T00:56:44;101376.25;;;11.82;nan
55685;BME280;41883;49.544;8.646;2023-02-18T00:59:09;101373.47;;;11.83;nan
55685;BME280;41883;49.544;8.646;2023-02-18T01:01:34;101368.19;;;11.83;nan
55685;BME280;41883;49.544;8.646;2023-02-18T01:03:59;101367.91;;;11.86;nan
55685;BME280;41883;49.544;8.646;2023-02-18T01:06:25;101378.09;;;11.81;nan
55685;BME280;41883;49.544;8.646;2023-02-18T01:08:50;101367.34;;;11.83;nan
55685;BME280;41883;49.544;8.646;2023-02-18T01:11:15;101373.47;;;11.83;nan
55685;BME280;41883;49.544;8.646;2023-02-18T01:13:41;101370.84;;;11.83;nan
55685;BME280;41883;49.544;8.646;2023-02-18T01:16:06;101374.31;;;11.84;nan
55685;BME280;41883;49.544;8.646;2023-02-18T01:18:32;101372.38;;;11.86;nan
55685;BME280;41883;49.544;8.646;2023-02-18T01:20:57;101372.38;;;11.86;nan
55685;BME280;41883;49.544;8.646;2023-02-18T01:23:22;101370.84;;;11.83;nan
55685;BME280;41883;49.544;8.646;2023-02-18T01:25:48;101375.31;;;11.83;nan
55685;BME280;41883;49.544;8.646;2023-02-18T01:28:13;101376.53;;;11.79;nan
55685;BME280;41883;49.544;8.646;2023-02-18T01:30:39;101380.03;;;11.79;nan
55685;BME280;41883;49.544;8.646;2023-02-18T01:33:04;101374.47;;;11.82;nan
55685;BME280;41883;49.544;8.646;2023-02-18T01:35:29;101372.66;;;11.83;nan
55685;BME280;41883;49.544;8.646;2023-02-18T01:37:54;101377.78;;;11.84;nan
55685;BME280;41883;49.544;8.646;2023-02-18T01:40:22;101368.06;;;11.85;nan
55685;BME280;41883;49.544;8.646;2023-02-18T01:42:47;101360.97;;;11.95;nan
55685;BME280;41883;49.544;8.646;2023-02-18T01:47:57;101365.84;;;11.90;nan
55685;BME280;41883;49.544;8.646;2023-02-18T01:50:22;101370.72;;;11.95;nan
55685;BME280;41883;49.544;8.646;2023-02-18T01:52:48;101365.97;;;11.98;nan
55685;BME280;41883;49.544;8.646;2023-02-18T01:55:13;101359.72;;;11.99;nan
55685;BME280;41883;49.544;8.646;2023-02-18T01:57:38;101356.63;;;12.04;nan
55685;BME280;41883;49.544;8.646;2023-02-18T02:02:29;101360.25;;;12.03;nan
55685;BME280;41883;49.544;8.646;2023-02-18T02:04:55;101356.06;;;12.00;nan
55685;BME280;41883;49.544;8.646;2023-02-18T02:07:21;101356.06;;;12.00;nan
55685;BME280;41883;49.544;8.646;2023-02-18T02:09:47;101357.47;;;12.04;nan
55685;BME280;41883;49.544;8.646;2023-02-18T02:12:27;101350.06;;;12.08;nan
55685;BME280;41883;49.544;8.646;2023-02-18T02:20:13;101336.38;;;12.13;nan
55685;BME280;41883;49.544;8.646;2023-02-18T02:27:42;101319.34;;;12.15;nan
55685;BME280;41883;49.544;8.646;2023-02-18T02:33:06;101310.28;;;12.18;nan
55685;BME280;41883;49.544;8.646;2023-02-18T02:35:37;101311.13;;;12.18;nan
55685;BME280;41883;49.544;8.646;2023-02-18T02:38:18;101311.13;;;12.18;nan
55685;BME280;41883;49.544;8.646;2023-02-18T02:40:46;101301.50;;;12.17;nan
55685;BME280;41883;49.544;8.646;2023-02-18T02:43:34;101302.47;;;12.16;nan
55685;BME280;41883;49.544;8.646;2023-02-18T02:46:06;101293.25;;;12.10;nan
55685;BME280;41883;49.544;8.646;2023-02-18T02:48:41;101299.56;;;12.09;nan
55685;BME280;41883;49.544;8.646;2023-02-18T02:53:43;101289.94;;;12.08;nan
55685;BME280;41883;49.544;8.646;2023-02-18T02:56:16;101291.19;;;12.14;nan
55685;BME280;41883;49.544;8.646;2023-02-18T02:58:41;101291.63;;;12.00;nan
55685;BME280;41883;49.544;8.646;2023-02-18T03:01:23;101295.81;;;12.02;nan
55685;BME280;41883;49.544;8.646;2023-02-18T03:08:49;101289.09;;;12.08;nan
55685;BME280;41883;49.544;8.646;2023-02-18T03:11:20;101295.81;;;12.02;nan
55685;BME280;41883;49.544;8.646;2023-02-18T03:16:52;101287.16;;;12.00;nan
55685;BME280;41883;49.544;8.646;2023-02-18T03:19:39;101289.38;;;12.05;nan
55685;BME280;41883;49.544;8.646;2023-02-18T03:22:06;101287.03;;;12.02;nan
55685;BME280;41883;49.544;8.646;2023-02-18T03:24:43;101283.53;;;12.01;nan
55685;BME280;41883;49.544;8.646;2023-02-18T03:27:09;101278.25;;;12.01;nan
55685;BME280;41883;49.544;8.646;2023-02-18T03:29:35;101281.56;;;12.03;nan
55685;BME280;41883;49.544;8.646;2023-02-18T03:32:02;101277.13;;;12.04;nan
55685;BME280;41883;49.544;8.646;2023-02-18T03:34:29;101271.94;;;12.02;nan
55685;BME280;41883;49.544;8.646;2023-02-18T03:36:55;101267.47;;;12.03;nan
55685;BME280;41883;49.544;8.646;2023-02-18T03:39:22;101266.94;;;11.99;nan
55685;BME280;41883;49.544;8.646;2023-02-18T03:41:49;101267.63;;;12.01;nan
55685;BME280;41883;49.544;8.646;2023-02-18T03:44:14;101269.84;;;11.96;nan
55685;BME280;41883;49.544;8.646;2023-02-18T03:46:40;101282.28;;;11.96;nan
55685;BME280;41883;49.544;8.646;2023-02-18T03:49:07;101277.69;;;11.88;nan
55685;BME280;41883;49.544;8.646;2023-02-18T03:51:33;101281.56;;;11.94;nan
55685;BME280;41883;49.544;8.646;2023-02-18T03:53:58;101280.75;;;11.93;nan
55685;BME280;41883;49.544;8.646;2023-02-18T03:56:23;101282.69;;;11.91;nan
55685;BME280;41883;49.544;8.646;2023-02-18T03:58:48;101281.56;;;11.84;nan
55685;BME280;41883;49.544;8.646;2023-02-18T04:01:14;101286.88;;;11.94;nan
55685;BME280;41883;49.544;8.646;2023-02-18T04:03:39;101280.19;;;11.80;nan
55685;BME280;41883;49.544;8.646;2023-02-18T04:06:04;101287.56;;;11.86;nan
55685;BME280;41883;49.544;8.646;2023-02-18T04:08:30;101290.81;;;11.89;nan
55685;BME280;41883;49.544;8.646;2023-02-18T04:10:55;101281.34;;;11.87;nan
55685;BME280;41883;49.544;8.646;2023-02-18T04:13:20;101287.56;;;11.86;nan
55685;BME280;41883;49.544;8.646;2023-02-18T04:15:47;101298.59;;;11.91;nan
55685;BME280;41883;49.544;8.646;2023-02-18T04:18:13;101295.41;;;11.87;nan
55685;BME280;41883;49.544;8.646;2023-02-18T04:20:38;101296.50;;;11.85;nan
55685;BME280;41883;49.544;8.646;2023-02-18T04:23:03;101293.47;;;11.89;nan
55685;BME280;41883;49.544;8.646;2023-02-18T04:25:29;101303.38;;;11.87;nan
55685;BME280;41883;49.544;8.646;2023-02-18T04:27:54;101292.03;;;11.85;nan
55685;BME280;41883;49.544;8.646;2023-02-18T04:30:19;101297.47;;;11.84;nan
55685;BME280;41883;49.544;8.646;2023-02-18T04:32:44;101306.69;;;11.80;nan
55685;BME280;41883;49.544;8.646;2023-02-18T04:35:09;101298.06;;;11.87;nan
55685;BME280;41883;49.544;8.646;2023-02-18T04:37:35;101293.84;;;11.85;nan
55685;BME280;41883;49.544;8.646;2023-02-18T04:40:00;101296.25;;;11.88;nan
55685;BME280;41883;49.544;8.646;2023-02-18T04:42:25;101293.84;;;11.85;nan
55685;BME280;41883;49.544;8.646;2023-02-18T04:44:50;101301.63;;;11.86;nan
55685;BME280;41883;49.544;8.646;2023-02-18T04:47:15;101293.84;;;11.85;nan
55685;BME280;41883;49.544;8.646;2023-02-18T04:49:40;101294.59;;;11.87;nan
55685;BME280;41883;49.544;8.646;2023-02-18T04:52:06;101299.59;;;11.90;nan
55685;BME280;41883;49.544;8.646;2023-02-18T04:54:31;101297.88;;;11.79;nan
55685;BME280;41883;49.544;8.646;2023-02-18T04:56:56;101281.16;;;11.79;nan
55685;BME280;41883;49.544;8.646;2023-02-18T04:59:21;101290.63;;;11.81;nan
55685;BME280;41883;49.544;8.646;2023-02-18T05:01:46;101286.44;;;11.79;nan
55685;BME280;41883;49.544;8.646;2023-02-18T05:04:12;101280.44;;;11.77;nan
55685;BME280;41883;49.544;8.646;2023-02-18T05:06:37;101288.28;;;11.78;nan
55685;BME280;41883;49.544;8.646;2023-02-18T05:09:04;101280.31;;;11.78;nan
55685;BME280;41883;49.544;8.646;2023-02-18T05:11:29;101283.41;;;11.74;nan
55685;BME280;41883;49.544;8.646;2023-02-18T05:13:54;101285.50;;;11.80;nan
55685;BME280;41883;49.544;8.646;2023-02-18T05:16:19;101288.56;;;11.75;nan
55685;BME280;41883;49.544;8.646;2023-02-18T05:18:44;101291.75;;;11.79;nan
55685;BME280;41883;49.544;8.646;2023-02-18T05:21:10;101292.88;;;11.76;nan
55685;BME280;41883;49.544;8.646;2023-02-18T05:23:36;101286.03;;;11.74;nan
55685;BME280;41883;49.544;8.646;2023-02-18T05:26:01;101289.53;;;11.74;nan
55685;BME280;41883;49.544;8.646;2023-02-18T05:28:26;101284.09;;;11.66;nan
55685;BME280;41883;49.544;8.646;2023-02-18T05:30:51;101282.16;;;11.68;nan
55685;BME280;41883;49.544;8.646;2023-02-18T05:33:16;101283.69;;;11.71;nan
55685;BME280;41883;49.544;8.646;2023-02-18T05:35:42;101288.53;;;11.65;nan
55685;BME280;41883;49.544;8.646;2023-02-18T05:38:07;101280.19;;;11.60;nan
55685;BME280;41883;49.544;8.646;2023-02-18T05:40:32;101279.94;;;11.54;nan
55685;BME280;41883;49.544;8.646;2023-02-18T05:42:57;101272.41;;;11.59;nan
55685;BME280;41883;49.544;8.646;2023-02-18T05:45:22;101271.13;;;11.53;nan
55685;BME280;41883;49.544;8.646;2023-02-18T05:47:48;101282.13;;;11.58;nan
55685;BME280;41883;49.544;8.646;2023-02-18T05:50:13;101276.72;;;11.60;nan
55685;BME280;41883;49.544;8.646;2023-02-18T05:52:38;101278.41;;;11.61;nan
55685;BME280;41883;49.544;8.646;2023-02-18T05:55:04;101277.13;;;11.65;nan
55685;BME280;41883;49.544;8.646;2023-02-18T05:57:29;101267.63;;;11.62;nan
55685;BME280;41883;49.544;8.646;2023-02-18T05:59:54;101272.66;;;11.65;nan
55685;BME280;41883;49.544;8.646;2023-02-18T06:02:19;101267.50;;;11.64;nan
55685;BME280;41883;49.544;8.646;2023-02-18T06:04:45;101282.56;;;11.63;nan
55685;BME280;41883;49.544;8.646;2023-02-18T06:07:10;101262.06;;;11.65;nan
55685;BME280;41883;49.544;8.646;2023-02-18T06:09:35;101267.34;;;11.65;nan
55685;BME280;41883;49.544;8.646;2023-02-18T06:12:00;101260.53;;;11.63;nan
55685;BME280;41883;49.544;8.646;2023-02-18T06:14:25;101272.94;;;11.62;nan
55685;BME280;41883;49.544;8.646;2023-02-18T06:16:51;101273.94;;;11.61;nan
55685;BME280;41883;49.544;8.646;2023-02-18T06:19:16;101256.75;;;11.65;nan
55685;BME280;41883;49.544;8.646;2023-02-18T06:21:41;101272.09;;;11.62;nan
55685;BME280;41883;49.544;8.646;2023-02-18T06:24:06;101262.91;;;11.66;nan
55685;BME280;41883;49.544;8.646;2023-02-18T06:26:32;101264.56;;;11.67;nan
55685;BME280;41883;49.544;8.646;2023-02-18T06:28:58;101265.16;;;11.61;nan
55685;BME280;41883;49.544;8.646;2023-02-18T06:31:23;101260.69;;;11.61;nan
55685;BME280;41883;49.544;8.646;2023-02-18T06:33:48;101250.09;;;11.61;nan
55685;BME280;41883;49.544;8.646;2023-02-18T06:36:13;101246.16;;;11.65;nan
55685;BME280;41883;49.544;8.646;2023-02-18T06:38:39;101245.91;;;11.59;nan
55685;BME280;41883;49.544;8.646;2023-02-18T06:41:05;101253.56;;;11.62;nan
55685;BME280;41883;49.544;8.646;2023-02-18T06:43:30;101239.31;;;11.63;nan
55685;BME280;41883;49.544;8.646;2023-02-18T06:45:55;101241.44;;;11.59;nan
55685;BME280;41883;49.544;8.646;2023-02-18T06:48:21;101234.31;;;11.60;nan
55685;BME280;41883;49.544;8.646;2023-02-18T06:50:46;101240.59;;;11.59;nan
55685;BME280;41883;49.544;8.646;2023-02-18T06:53:12;101227.50;;;11.57;nan
55685;BME280;41883;49.544;8.646;2023-02-18T06:55:37;101231.13;;;11.56;nan
55685;BME280;41883;49.544;8.646;2023-02-18T06:58:02;101226.38;;;11.60;nan
55685;BME280;41883;49.544;8.646;2023-02-18T07:00:27;101227.50;;;11.57;nan
55685;BME280;41883;49.544;8.646;2023-02-18T07:02:53;101231.97;;;11.57;nan
55685;BME280;41883;49.544;8.646;2023-02-18T07:05:18;101233.22;;;11.53;nan
55685;BME280;41883;49.544;8.646;2023-02-18T07:07:43;101226.78;;;11.55;nan
55685;BME280;41883;49.544;8.646;2023-02-18T07:10:09;101232.50;;;11.60;nan
55685;BME280;41883;49.544;8.646;2023-02-18T07:12:35;101236.69;;;11.63;nan
55685;BME280;41883;49.544;8.646;2023-02-18T07:15:00;101221.47;;;11.65;nan
55685;BME280;41883;49.544;8.646;2023-02-18T07:17:25;101224.28;;;11.63;nan
55685;BME280;41883;49.544;8.646;2023-02-18T07:19:50;101216.34;;;11.63;nan
55685;BME280;41883;49.544;8.646;2023-02-18T07:22:16;101212.84;;;11.63;nan
55685;BME280;41883;49.544;8.646;2023-02-18T07:24:41;101220.78;;;11.63;nan
55685;BME280;41883;49.544;8.646;2023-02-18T07:27:06;101209.63;;;11.69;nan
55685;BME280;41883;49.544;8.646;2023-02-18T07:29:32;101218.69;;;11.76;nan
55685;BME280;41883;49.544;8.646;2023-02-18T07:31:57;101210.31;;;11.81;nan
55685;BME280;41883;49.544;8.646;2023-02-18T07:34:22;101210.00;;;11.84;nan
55685;BME280;41883;49.544;8.646;2023-02-18T07:36:47;101208.88;;;11.86;nan
55685;BME280;41883;49.544;8.646;2023-02-18T07:39:12;101206.53;;;11.93;nan
55685;BME280;41883;49.544;8.646;2023-02-18T07:41:38;101200.28;;;11.94;nan
55685;BME280;41883;49.544;8.646;2023-02-18T07:44:03;101192.31;;;11.94;nan
55685;BME280;41883;49.544;8.646;2023-02-18T07:46:28;101198.59;;;11.93;nan
55685;BME280;41883;49.544;8.646;2023-02-18T07:48:55;101200.72;;;11.89;nan
55685;BME280;41883;49.544;8.646;2023-02-18T07:51:20;101190.78;;;11.92;nan
55685;BME280;41883;49.544;8.646;2023-02-18T07:53:45;101184.09;;;11.87;nan
55685;BME280;41883;49.544;8.646;2023-02-18T07:56:10;101200.94;;;11.86;nan
55685;BME280;41883;49.544;8.646;2023-02-18T07:58:36;101197.47;;;11.86;nan
55685;BME280;41883;49.544;8.646;2023-02-18T08:01:08;101192.88;;;11.88;nan
55685;BME280;41883;49.544;8.646;2023-02-18T08:03:33;101206.25;;;11.86;nan
55685;BME280;41883;49.544;8.646;2023-02-18T08:05:59;101212.44;;;11.87;nan
55685;BME280;41883;49.544;8.646;2023-02-18T08:08:26;101207.97;;;11.87;nan
55685;BME280;41883;49.544;8.646;2023-02-18T08:10:52;101205.16;;;11.89;nan
55685;BME280;41883;49.544;8.646;2023-02-18T08:13:17;101204.03;;;11.92;nan
55685;BME280;41883;49.544;8.646;2023-02-18T08:15:42;101204.72;;;11.94;nan
55685;BME280;41883;49.544;8.646;2023-02-18T08:18:09;101194.28;;;11.92;nan
55685;BME280;41883;49.544;8.646;2023-02-18T08:20:38;101213.53;;;11.94;nan
55685;BME280;41883;49.544;8.646;2023-02-18T08:23:04;101195.63;;;11.96;nan
55685;BME280;41883;49.544;8.646;2023-02-18T08:25:30;101197.44;;;12.05;nan
55685;BME280;41883;49.544;8.646;2023-02-18T08:27:55;101196.06;;;12.01;nan
55685;BME280;41883;49.544;8.646;2023-02-18T08:30:20;101193.13;;;12.04;nan
55685;BME280;41883;49.544;8.646;2023-02-18T08:32:45;101186.94;;;12.14;nan
55685;BME280;41883;49.544;8.646;2023-02-18T08:35:10;101170.59;;;12.18;nan
55685;BME280;41883;49.544;8.646;2023-02-18T08:37:36;101172.53;;;12.26;nan
55685;BME280;41883;49.544;8.646;2023-02-18T08:40:01;101177.66;;;12.27;nan
55685;BME280;41883;49.544;8.646;2023-02-18T08:42:26;101173.75;;;12.31;nan
55685;BME280;41883;49.544;8.646;2023-02-18T08:44:52;101184.22;;;12.33;nan
55685;BME280;41883;49.544;8.646;2023-02-18T08:47:17;101194.13;;;12.31;nan
55685;BME280;41883;49.544;8.646;2023-02-18T08:49:42;101183.78;;;12.38;nan
55685;BME280;41883;49.544;8.646;2023-02-18T08:52:07;101187.94;;;12.40;nan
55685;BME280;41883;49.544;8.646;2023-02-18T08:54:33;101182.34;;;12.43;nan
55685;BME280;41883;49.544;8.646;2023-02-18T08:56:58;101172.28;;;12.47;nan
55685;BME280;41883;49.544;8.646;2023-02-18T08:59:24;101177.59;;;12.47;nan
55685;BME280;41883;49.544;8.646;2023-02-18T09:01:49;101174.75;;;12.48;nan
55685;BME280;41883;49.544;8.646;2023-02-18T09:04:14;101176.97;;;12.53;nan
55685;BME280;41883;49.544;8.646;2023-02-18T09:06:40;101171.59;;;12.63;nan
55685;BME280;41883;49.544;8.646;2023-02-18T09:09:05;101183.53;;;12.59;nan
55685;BME280;41883;49.544;8.646;2023-02-18T09:11:30;101193.81;;;12.62;nan
55685;BME280;41883;49.544;8.646;2023-02-18T09:13:56;101191.03;;;12.63;nan
55685;BME280;41883;49.544;8.646;2023-02-18T09:16:21;101186.84;;;12.61;nan
55685;BME280;41883;49.544;8.646;2023-02-18T09:18:48;101190.72;;;12.66;nan
55685;BME280;41883;49.544;8.646;2023-02-18T09:21:13;101193.53;;;12.65;nan
55685;BME280;41883;49.544;8.646;2023-02-18T09:23:39;101199.53;;;12.67;nan
55685;BME280;41883;49.544;8.646;2023-02-18T09:26:06;101201.19;;;12.68;nan
55685;BME280;41883;49.544;8.646;2023-02-18T09:28:32;101200.91;;;12.71;nan
55685;BME280;41883;49.544;8.646;2023-02-18T09:31:02;101193.31;;;12.76;nan
55685;BME280;41883;49.544;8.646;2023-02-18T09:33:27;101188.53;;;12.80;nan
55685;BME280;41883;49.544;8.646;2023-02-18T09:35:52;101198.00;;;12.82;nan
55685;BME280;41883;49.544;8.646;2023-02-18T09:38:18;101190.84;;;12.92;nan
55685;BME280;41883;49.544;8.646;2023-02-18T09:40:44;101191.44;;;12.86;nan
55685;BME280;41883;49.544;8.646;2023-02-18T09:43:18;101196.59;;;12.88;nan
55685;BME280;41883;49.544;8.646;2023-02-18T09:45:46;101199.09;;;12.89;nan
55685;BME280;41883;49.544;8.646;2023-02-18T09:48:11;101187.34;;;12.92;nan
55685;BME280;41883;49.544;8.646;2023-02-18T09:50:36;101193.63;;;12.91;nan
55685;BME280;41883;49.544;8.646;2023-02-18T09:53:02;101202.34;;;13.01;nan
55685;BME280;41883;49.544;8.646;2023-02-18T09:55:32;101201.06;;;12.87;nan
55685;BME280;41883;49.544;8.646;2023-02-18T09:58:22;101209.50;;;12.83;nan
55685;BME280;41883;49.544;8.646;2023-02-18T10:00:50;101193.13;;;12.87;nan
55685;BME280;41883;49.544;8.646;2023-02-18T10:03:18;101201.47;;;12.92;nan
55685;BME280;41883;49.544;8.646;2023-02-18T10:05:53;101199.50;;;12.94;nan
55685;BME280;41883;49.544;8.646;2023-02-18T10:08:33;101191.59;;;13.03;nan
55685;BME280;41883;49.544;8.646;2023-02-18T10:11:00;101189.53;;;12.96;nan
55685;BME280;41883;49.544;8.646;2023-02-18T10:13:27;101186.28;;;13.03;nan
55685;BME280;41883;49.544;8.646;2023-02-18T10:15:53;101197.22;;;13.00;nan
55685;BME280;41883;49.544;8.646;2023-02-18T10:21:14;101198.66;;;13.12;nan
55685;BME280;41883;49.544;8.646;2023-02-18T10:24:27;101197.00;;;13.29;nan
55685;BME280;41883;49.544;8.646;2023-02-18T10:26:28;101199.06;;;13.35;nan
55685;BME280;41883;49.544;8.646;2023-02-18T10:28:54;101196.56;;;13.33;nan
55685;BME280;41883;49.544;8.646;2023-02-18T10:31:23;101204.88;;;13.38;nan
55685;BME280;41883;49.544;8.646;2023-02-18T10:41:29;101211.03;;;13.39;nan
55685;BME280;41883;49.544;8.646;2023-02-18T10:44:10;101207.78;;;13.27;nan
55685;BME280;41883;49.544;8.646;2023-02-18T10:49:26;101213.91;;;13.10;nan
55685;BME280;41883;49.544;8.646;2023-02-18T10:51:55;101210.09;;;12.94;nan
55685;BME280;41883;49.544;8.646;2023-02-18T10:54:22;101203.13;;;12.93;nan
55685;BME280;41883;49.544;8.646;2023-02-18T10:56:48;101201.47;;;12.92;nan
55685;BME280;41883;49.544;8.646;2023-02-18T10:59:30;101209.41;;;12.92;nan
55685;BME280;41883;49.544;8.646;2023-02-18T11:01:58;101190.59;;;13.04;nan
55685;BME280;41883;49.544;8.646;2023-02-18T11:04:43;101192.88;;;12.99;nan
55685;BME280;41883;49.544;8.646;2023-02-18T11:07:12;101197.81;;;13.11;nan
55685;BME280;41883;49.544;8.646;2023-02-18T11:09:45;101202.59;;;13.08;nan
55685;BME280;41883;49.544;8.646;2023-02-18T11:12:14;101185.69;;;13.09;nan
55685;BME280;41883;49.544;8.646;2023-02-18T11:14:42;101192.34;;;13.13;nan
55685;BME280;41883;49.544;8.646;2023-02-18T11:17:25;101196.59;;;13.06;nan
55685;BME280;41883;49.544;8.646;2023-02-18T11:19:55;101195.69;;;13.15;nan
55685;BME280;41883;49.544;8.646;2023-02-18T11:22:22;101196.16;;;13.46;nan
55685;BME280;41883;49.544;8.646;2023-02-18T11:24:48;101181.97;;;13.37;nan
55685;BME280;41883;49.544;8.646;2023-02-18T11:30:05;101173.00;;;13.38;nan
55685;BME280;41883;49.544;8.646;2023-02-18T11:32:33;101190.88;;;13.28;nan
55685;BME280;41883;49.544;8.646;2023-02-18T11:34:58;101187.13;;;13.21;nan
55685;BME280;41883;49.544;8.646;2023-02-18T11:37:24;101166.69;;;13.22;nan
55685;BME280;41883;49.544;8.646;2023-02-18T11:39:50;101160.19;;;13.34;nan
55685;BME280;41883;49.544;8.646;2023-02-18T11:42:21;101160.00;;;13.53;nan
55685;BME280;41883;49.544;8.646;2023-02-18T11:44:51;101150.00;;;13.73;nan
55685;BME280;41883;49.544;8.646;2023-02-18T11:49:43;101149.31;;;14.48;nan
55685;BME280;41883;49.544;8.646;2023-02-18T11:52:19;101149.75;;;14.70;nan
55685;BME280;41883;49.544;8.646;2023-02-18T11:57:50;101134.75;;;14.60;nan
55685;BME280;41883;49.544;8.646;2023-02-18T12:00:20;101141.41;;;14.73;nan
55685;BME280;41883;49.544;8.646;2023-02-18T12:02:46;101136.78;;;14.67;nan
55685;BME280;41883;49.544;8.646;2023-02-18T12:05:17;101119.31;;;14.80;nan
55685;BME280;41883;49.544;8.646;2023-02-18T12:07:49;101127.78;;;14.68;nan
55685;BME280;41883;49.544;8.646;2023-02-18T12:10:18;101132.16;;;14.34;nan
55685;BME280;41883;49.544;8.646;2023-02-18T12:13:31;101122.66;;;14.23;nan
55685;BME280;41883;49.544;8.646;2023-02-18T12:15:40;101122.19;;;14.28;nan
55685;BME280;41883;49.544;8.646;2023-02-18T12:18:20;101111.97;;;14.15;nan
55685;BME280;41883;49.544;8.646;2023-02-18T12:23:16;101117.34;;;14.32;nan
55685;BME280;41883;49.544;8.646;2023-02-18T12:28:20;101110.34;;;14.73;nan
55685;BME280;41883;49.544;8.646;2023-02-18T12:33:29;101103.34;;;14.89;nan
55685;BME280;41883;49.544;8.646;2023-02-18T12:36:18;101106.00;;;14.97;nan
55685;BME280;41883;49.544;8.646;2023-02-18T12:39:01;101113.16;;;14.96;nan
55685;BME280;41883;49.544;8.646;2023-02-18T12:49:26;101094.13;;;14.50;nan
55685;BME280;41883;49.544;8.646;2023-02-18T12:54:58;101091.94;;;14.45;nan
55685;BME280;41883;49.544;8.646;2023-02-18T13:08:06;101083.81;;;13.96;nan
55685;BME280;41883;49.544;8.646;2023-02-18T13:13:24;101070.69;;;13.95;nan
55685;BME280;41883;49.544;8.646;2023-02-18T13:15:55;101059.22;;;13.94;nan
55685;BME280;41883;49.544;8.646;2023-02-18T13:18:23;101056.59;;;14.02;nan
55685;BME280;41883;49.544;8.646;2023-02-18T13:20:57;101052.44;;;14.08;nan
55685;BME280;41883;49.544;8.646;2023-02-18T13:23:27;101050.16;;;14.21;nan
55685;BME280;41883;49.544;8.646;2023-02-18T13:25:56;101044.16;;;14.19;nan
55685;BME280;41883;49.544;8.646;2023-02-18T13:28:33;101036.00;;;14.13;nan
55685;BME280;41883;49.544;8.646;2023-02-18T13:31:11;101046.28;;;14.08;nan
55685;BME280;41883;49.544;8.646;2023-02-18T13:33:56;101041.66;;;14.01;nan
55685;BME280;41883;49.544;8.646;2023-02-18T13:39:16;101035.66;;;14.08;nan
55685;BME280;41883;49.544;8.646;2023-02-18T13:41:45;101038.47;;;13.98;nan
55685;BME280;41883;49.544;8.646;2023-02-18T13:46:52;101034.44;;;13.94;nan
55685;BME280;41883;49.544;8.646;2023-02-18T13:49:21;101024.81;;;13.93;nan
55685;BME280;41883;49.544;8.646;2023-02-18T13:51:48;101031.91;;;13.76;nan
55685;BME280;41883;49.544;8.646;2023-02-18T13:54:20;101032.03;;;13.66;nan
55685;BME280;41883;49.544;8.646;2023-02-18T13:59:30;101031.00;;;13.59;nan
55685;BME280;41883;49.544;8.646;2023-02-18T14:02:06;101036.25;;;13.51;nan
55685;BME280;41883;49.544;8.646;2023-02-18T14:09:47;101039.25;;;13.48;nan
55685;BME280;41883;49.544;8.646;2023-02-18T14:12:21;101033.66;;;13.59;nan
55685;BME280;41883;49.544;8.646;2023-02-18T14:14:47;101026.31;;;13.53;nan
55685;BME280;41883;49.544;8.646;2023-02-18T14:24:54;101033.00;;;13.57;nan
55685;BME280;41883;49.544;8.646;2023-02-18T14:27:20;101035.97;;;13.54;nan
55685;BME280;41883;49.544;8.646;2023-02-18T14:29:48;101049.59;;;13.59;nan
55685;BME280;41883;49.544;8.646;2023-02-18T14:32:15;101037.94;;;13.52;nan
55685;BME280;41883;49.544;8.646;2023-02-18T14:39:48;101041.19;;;13.37;nan
55685;BME280;41883;49.544;8.646;2023-02-18T14:42:23;101045.81;;;13.35;nan
55685;BME280;41883;49.544;8.646;2023-02-18T14:45:03;101049.34;;;13.18;nan
55685;BME280;41883;49.544;8.646;2023-02-18T14:47:54;101048.66;;;13.16;nan
55685;BME280;41883;49.544;8.646;2023-02-18T14:50:20;101055.78;;;13.15;nan
55685;BME280;41883;49.544;8.646;2023-02-18T14:52:49;101049.97;;;13.12;nan
55685;BME280;41883;49.544;8.646;2023-02-18T14:55:21;101050.63;;;13.14;nan
55685;BME280;41883;49.544;8.646;2023-02-18T14:57:49;101038.19;;;13.14;nan
55685;BME280;41883;49.544;8.646;2023-02-18T15:00:17;101049.28;;;13.10;nan